createdAt,value
2019-04-22T00:02:11.120Z,11.60
2019-04-22T00:04:42.144Z,11.60
2019-04-22T00:07:15.599Z,11.60
2019-04-22T00:09:46.150Z,11.70
2019-04-22T00:12:07.470Z,11.50
2019-04-22T00:14:24.246Z,11.50
2019-04-22T00:16:53.595Z,11.50
2019-04-22T00:21:40.432Z,11.50
2019-04-22T00:24:05.901Z,11.60
2019-04-22T00:28:52.256Z,11.60
2019-04-22T00:31:14.537Z,11.60
2019-04-22T00:33:40.082Z,11.50
2019-04-22T00:36:01.195Z,11.40
2019-04-22T00:38:33.398Z,11.30
2019-04-22T00:41:05.835Z,11.30
2019-04-22T00:43:13.369Z,11.20
2019-04-22T00:45:39.915Z,11.00
2019-04-22T00:48:07.575Z,11.00
2019-04-22T00:50:23.884Z,11.00
2019-04-22T00:52:47.484Z,10.90
2019-04-22T00:55:16.358Z,11.00
2019-04-22T00:57:35.598Z,11.00
2019-04-22T01:00:01.773Z,10.90
2019-04-22T01:02:20.263Z,11.00
2019-04-22T01:04:49.142Z,11.00
2019-04-22T01:07:06.078Z,10.90
2019-04-22T01:09:37.030Z,10.90
2019-04-22T01:11:56.301Z,10.90
2019-04-22T01:14:21.637Z,10.80
2019-04-22T01:16:42.996Z,10.80
2019-04-22T01:19:07.193Z,10.80
2019-04-22T01:21:36.963Z,10.70
2019-04-22T01:23:47.763Z,10.70
2019-04-22T01:26:09.904Z,10.70
2019-04-22T01:28:30.408Z,10.60
2019-04-22T01:30:51.709Z,10.60
2019-04-22T01:33:13.998Z,10.60
2019-04-22T01:35:41.156Z,10.60
2019-04-22T01:38:11.533Z,10.50
2019-04-22T01:40:50.321Z,10.50
2019-04-22T01:43:15.073Z,10.50
2019-04-22T01:45:36.386Z,10.40
2019-04-22T01:47:51.427Z,10.40
2019-04-22T01:50:15.205Z,10.40
2019-04-22T01:52:38.005Z,10.40
2019-04-22T01:55:10.611Z,10.40
2019-04-22T01:57:20.715Z,10.30
2019-04-22T01:59:41.598Z,10.30
2019-04-22T02:02:14.358Z,10.30
2019-04-22T02:04:39.740Z,10.40
2019-04-22T02:06:57.634Z,10.40
2019-04-22T02:09:22.459Z,10.40
2019-04-22T02:11:46.642Z,10.40
2019-04-22T02:14:09.153Z,10.40
2019-04-22T02:18:53.073Z,10.20
2019-04-22T02:21:17.015Z,9.90
2019-04-22T02:28:39.919Z,9.30
2019-04-22T02:31:16.064Z,9.30
2019-04-22T02:33:44.150Z,9.30
2019-04-22T02:35:58.105Z,9.10
2019-04-22T02:38:19.981Z,9.20
2019-04-22T02:40:45.557Z,9.10
2019-04-22T02:42:58.426Z,9.20
2019-04-22T02:45:23.102Z,9.20
2019-04-22T02:47:35.986Z,9.30
2019-04-22T02:50:05.165Z,9.20
2019-04-22T02:52:41.252Z,9.10
2019-04-22T02:59:31.058Z,9.10
2019-04-22T03:02:14.580Z,9.00
2019-04-22T03:04:18.575Z,8.90
2019-04-22T03:06:38.470Z,9.00
2019-04-22T03:13:55.744Z,9.10
2019-04-22T03:18:47.232Z,9.20
2019-04-22T03:23:35.910Z,9.40
2019-04-22T03:28:08.657Z,9.40
2019-04-22T03:30:53.460Z,9.40
2019-04-22T03:37:53.088Z,9.30
2019-04-22T03:40:28.672Z,9.20
2019-04-22T03:42:45.706Z,9.10
2019-04-22T03:45:16.281Z,9.10
2019-04-22T03:49:55.856Z,8.70
2019-04-22T03:52:16.374Z,8.60
2019-04-22T03:54:39.932Z,8.50
2019-04-22T03:59:29.468Z,8.40
2019-04-22T04:01:55.387Z,8.20
2019-04-22T04:04:18.509Z,8.10
2019-04-22T04:06:43.242Z,8.00
2019-04-22T04:11:24.725Z,8.00
2019-04-22T04:13:41.574Z,8.00
2019-04-22T04:16:03.179Z,8.10
2019-04-22T04:18:37.231Z,8.10
2019-04-22T04:21:09.256Z,8.20
2019-04-22T04:23:19.872Z,8.20
2019-04-22T04:25:42.760Z,8.20
2019-04-22T04:30:29.616Z,8.20
2019-04-22T04:35:32.468Z,8.30
2019-04-22T04:40:05.141Z,8.40
2019-04-22T04:44:58.628Z,8.60
2019-04-22T04:47:13.651Z,8.70
2019-04-22T04:49:39.252Z,8.70
2019-04-22T04:52:16.969Z,8.80
2019-04-22T04:56:39.920Z,9.00
2019-04-22T04:59:16.352Z,9.00
2019-04-22T05:01:30.893Z,9.00
2019-04-22T05:03:56.861Z,9.10
2019-04-22T05:06:12.738Z,9.20
2019-04-22T05:11:05.810Z,9.30
2019-04-22T05:13:30.567Z,9.40
2019-04-22T05:16:17.379Z,9.40
2019-04-22T05:18:26.536Z,9.50
2019-04-22T05:22:51.345Z,9.70
2019-04-22T05:25:18.985Z,9.80
2019-04-22T05:27:40.136Z,9.90
2019-04-22T05:30:21.238Z,10.00
2019-04-22T05:32:24.527Z,10.10
2019-04-22T05:34:48.749Z,10.30
2019-04-22T05:37:14.654Z,10.40
2019-04-22T05:39:41.566Z,10.40
2019-04-22T05:42:03.432Z,10.50
2019-04-22T05:44:23.271Z,10.60
2019-04-22T05:46:49.966Z,10.80
2019-04-22T05:49:15.002Z,10.80
2019-04-22T05:51:38.573Z,10.90
2019-04-22T05:53:57.434Z,11.00
2019-04-22T05:56:28.452Z,11.20
2019-04-22T05:58:45.330Z,11.30
2019-04-22T06:03:32.807Z,11.60
2019-04-22T06:05:55.295Z,11.70
2019-04-22T06:08:16.706Z,11.80
2019-04-22T06:10:45.684Z,11.90
2019-04-22T06:13:00.849Z,12.10
2019-04-22T06:15:29.044Z,12.20
2019-04-22T06:18:05.611Z,12.40
2019-04-22T06:20:25.572Z,12.50
2019-04-22T06:22:53.418Z,12.70
2019-04-22T06:25:39.514Z,12.80
2019-04-22T06:27:38.700Z,13.00
2019-04-22T06:30:02.082Z,13.20
2019-04-22T06:32:26.666Z,13.30
2019-04-22T06:34:43.104Z,13.40
2019-04-22T06:39:34.351Z,13.60
2019-04-22T06:41:56.625Z,13.70
2019-04-22T06:44:18.297Z,13.80
2019-04-22T06:46:39.957Z,13.90
2019-04-22T06:49:04.262Z,13.90
2019-04-22T06:51:26.947Z,13.90
2019-04-22T06:53:47.297Z,14.00
2019-04-22T06:56:20.615Z,13.90
2019-04-22T06:58:36.676Z,13.90
2019-04-22T07:01:07.570Z,14.00
2019-04-22T07:05:47.522Z,14.40
2019-04-22T07:08:30.732Z,14.60
2019-04-22T07:10:34.974Z,14.90
2019-04-22T07:12:53.994Z,15.20
2019-04-22T07:15:38.356Z,15.40
2019-04-22T07:20:04.242Z,15.70
2019-04-22T07:22:29.276Z,15.80
2019-04-22T07:25:04.353Z,16.10
2019-04-22T07:27:14.602Z,16.30
2019-04-22T07:29:39.121Z,16.40
2019-04-22T07:32:00.372Z,16.70
2019-04-22T07:34:27.682Z,16.90
2019-04-22T07:36:54.686Z,17.10
2019-04-22T07:39:10.544Z,17.30
2019-04-22T07:41:34.492Z,17.50
2019-04-22T07:46:18.608Z,17.90
2019-04-22T07:48:57.392Z,18.00
2019-04-22T07:51:07.739Z,18.10
2019-04-22T07:53:27.899Z,18.10
2019-04-22T07:55:53.690Z,18.20
2019-04-22T07:58:18.470Z,18.30
2019-04-22T08:00:38.835Z,18.40
2019-04-22T08:03:09.318Z,18.60
2019-04-22T08:05:32.954Z,18.80
2019-04-22T08:08:05.400Z,18.90
2019-04-22T08:10:23.883Z,19.10
2019-04-22T08:12:47.503Z,19.30
2019-04-22T08:15:03.790Z,19.40
2019-04-22T08:17:53.427Z,19.70
2019-04-22T08:19:48.396Z,19.80
2019-04-22T08:22:11.703Z,19.90
2019-04-22T08:24:51.438Z,20.10
2019-04-22T08:26:58.148Z,20.10
2019-04-22T08:29:25.437Z,20.30
2019-04-22T08:31:49.141Z,20.40
2019-04-22T08:34:13.752Z,20.40
2019-04-22T08:36:31.710Z,20.40
2019-04-22T08:39:04.512Z,20.40
2019-04-22T08:43:55.879Z,20.60
2019-04-22T08:46:10.934Z,20.60
2019-04-22T08:48:29.691Z,20.80
2019-04-22T08:50:58.807Z,20.80
2019-04-22T08:53:14.240Z,20.90
2019-04-22T09:00:32.490Z,21.20
2019-04-22T09:02:53.953Z,21.20
2019-04-22T09:05:31.036Z,21.40
2019-04-22T09:07:36.912Z,21.50
2019-04-22T09:09:55.638Z,21.70
2019-04-22T09:12:23.807Z,21.80
2019-04-22T09:17:13.671Z,22.10
2019-04-22T09:19:28.500Z,22.20
2019-04-22T09:24:19.637Z,22.30
2019-04-22T09:26:41.860Z,22.40
2019-04-22T09:29:05.092Z,22.60
2019-04-22T09:31:23.523Z,22.60
2019-04-22T09:33:49.243Z,22.70
2019-04-22T09:38:39.544Z,23.00
2019-04-22T09:40:59.931Z,23.20
2019-04-22T09:43:25.861Z,22.90
2019-04-22T09:45:51.141Z,22.60
2019-04-22T09:48:18.076Z,22.70
2019-04-22T09:50:38.551Z,22.80
2019-04-22T09:53:03.588Z,22.80
2019-04-22T09:55:19.738Z,23.10
2019-04-22T09:57:39.740Z,23.30
2019-04-22T10:00:08.862Z,23.60
2019-04-22T10:02:49.054Z,23.50
2019-04-22T10:04:55.165Z,23.10
2019-04-22T10:07:17.548Z,23.10
2019-04-22T10:09:53.119Z,23.10
2019-04-22T10:12:02.635Z,23.00
2019-04-22T10:14:24.827Z,23.10
2019-04-22T10:16:51.862Z,23.10
2019-04-22T10:19:15.008Z,23.40
2019-04-22T10:21:40.735Z,23.60
2019-04-22T10:23:59.960Z,24.00
2019-04-22T10:26:26.822Z,24.10
2019-04-22T10:31:14.904Z,24.70
2019-04-22T10:33:26.849Z,24.80
2019-04-22T10:35:32.427Z,25.20
2019-04-22T10:37:54.294Z,25.60
2019-04-22T10:40:19.472Z,25.70
2019-04-22T10:42:43.131Z,25.70
2019-04-22T10:45:06.042Z,25.80
2019-04-22T10:47:27.997Z,25.90
2019-04-22T10:49:49.398Z,25.80
2019-04-22T10:52:10.868Z,25.60
2019-04-22T10:54:33.528Z,25.70
2019-04-22T10:56:55.159Z,25.70
2019-04-22T10:59:16.538Z,25.60
2019-04-22T11:01:38.638Z,25.30
2019-04-22T11:04:01.521Z,25.50
2019-04-22T11:06:23.347Z,26.20
2019-04-22T11:08:52.260Z,26.80
2019-04-22T11:11:21.384Z,27.40
2019-04-22T11:13:31.891Z,27.50
2019-04-22T11:15:54.873Z,27.60
2019-04-22T11:18:17.815Z,27.30
2019-04-22T11:20:39.800Z,27.30
2019-04-22T11:23:02.552Z,27.00
2019-04-22T11:25:25.510Z,27.00
2019-04-22T11:27:47.258Z,27.30
2019-04-22T11:30:09.158Z,28.00
2019-04-22T11:32:33.580Z,28.80
2019-04-22T11:34:56.058Z,29.10
2019-04-22T11:37:18.545Z,29.30
2019-04-22T11:39:40.722Z,29.50
2019-04-22T11:42:02.527Z,29.50
2019-04-22T11:44:25.421Z,29.60
2019-04-22T11:46:47.488Z,29.80
2019-04-22T11:49:09.891Z,29.40
2019-04-22T11:51:31.974Z,28.80
2019-04-22T11:53:54.701Z,28.40
2019-04-22T11:56:16.907Z,28.50
2019-04-22T11:58:39.041Z,28.80
2019-04-22T12:01:01.082Z,29.10
2019-04-22T12:03:22.917Z,29.30
2019-04-22T12:05:45.846Z,29.30
2019-04-22T12:08:07.431Z,29.00
2019-04-22T12:10:36.668Z,28.90
2019-04-22T12:12:53.946Z,28.80
2019-04-22T12:15:16.920Z,28.80
2019-04-22T12:17:38.376Z,28.30
2019-04-22T12:20:00.214Z,28.00
2019-04-22T12:22:24.992Z,28.00
2019-04-22T12:24:48.183Z,28.00
2019-04-22T12:27:10.519Z,28.00
2019-04-22T12:29:33.336Z,28.40
2019-04-22T12:31:55.608Z,28.70
2019-04-22T12:34:17.330Z,28.90
2019-04-22T12:36:38.697Z,28.80
2019-04-22T12:38:59.877Z,28.90
2019-04-22T12:41:21.642Z,29.30
2019-04-22T12:43:43.221Z,29.30
2019-04-22T12:46:05.847Z,29.20
2019-04-22T12:48:27.562Z,29.40
2019-04-22T12:50:52.121Z,29.50
2019-04-22T12:53:17.773Z,29.60
2019-04-22T12:55:37.685Z,29.50
2019-04-22T12:58:00.939Z,29.40
2019-04-22T13:00:22.572Z,29.30
2019-04-22T13:02:44.997Z,29.20
2019-04-22T13:05:08.017Z,29.00
2019-04-22T13:07:29.543Z,28.50
2019-04-22T13:09:51.621Z,28.20
2019-04-22T13:12:13.151Z,28.10
2019-04-22T13:14:35.058Z,28.40
2019-04-22T13:16:57.770Z,27.50
2019-04-22T13:19:21.013Z,27.60
2019-04-22T13:21:42.754Z,28.20
2019-04-22T13:24:04.728Z,28.50
2019-04-22T13:26:27.162Z,28.70
2019-04-22T13:28:49.315Z,29.00
2019-04-22T13:31:11.747Z,29.30
2019-04-22T13:33:34.610Z,29.20
2019-04-22T13:35:57.449Z,29.40
2019-04-22T13:38:19.265Z,29.50
2019-04-22T13:40:59.277Z,29.40
2019-04-22T13:43:05.057Z,29.60
2019-04-22T13:45:27.371Z,29.60
2019-04-22T13:48:08.643Z,29.60
2019-04-22T13:55:32.912Z,30.00
2019-04-22T13:57:42.566Z,29.90
2019-04-22T13:59:53.746Z,30.20
2019-04-22T14:02:30.693Z,30.20
2019-04-22T14:04:54.724Z,30.10
2019-04-22T14:07:16.634Z,30.10
2019-04-22T14:09:38.231Z,30.10
2019-04-22T14:12:05.607Z,30.10
2019-04-22T14:14:23.909Z,30.00
2019-04-22T14:16:46.620Z,30.30
2019-04-22T14:19:09.842Z,30.30
2019-04-22T14:21:32.548Z,30.20
2019-04-22T14:23:53.885Z,30.30
2019-04-22T14:26:15.470Z,30.10
2019-04-22T14:28:37.512Z,29.50
2019-04-22T14:31:00.228Z,29.30
2019-04-22T14:33:22.379Z,29.10
2019-04-22T14:35:43.808Z,28.70
2019-04-22T14:38:06.433Z,28.10
2019-04-22T14:40:28.756Z,27.60
2019-04-22T14:43:10.685Z,27.20
2019-04-22T14:45:41.836Z,27.10
2019-04-22T14:48:05.800Z,26.80
2019-04-22T14:50:27.062Z,26.90
2019-04-22T14:52:46.005Z,26.80
2019-04-22T14:55:00.881Z,26.80
2019-04-22T14:57:12.876Z,26.90
2019-04-22T14:59:35.528Z,26.90
2019-04-22T15:01:58.168Z,26.80
2019-04-22T15:04:19.517Z,26.70
2019-04-22T15:06:43.480Z,26.50
2019-04-22T15:09:06.090Z,26.90
2019-04-22T15:11:42.913Z,26.80
2019-04-22T15:13:53.537Z,26.70
2019-04-22T15:16:20.112Z,26.70
2019-04-22T15:18:44.156Z,26.40
2019-04-22T15:21:24.801Z,26.40
2019-04-22T15:23:46.664Z,26.30
2019-04-22T15:26:08.568Z,26.30
2019-04-22T15:28:31.310Z,26.20
2019-04-22T15:30:53.255Z,26.20
2019-04-22T15:33:15.574Z,26.20
2019-04-22T15:35:37.611Z,26.00
2019-04-22T15:37:59.310Z,26.00
2019-04-22T15:40:20.678Z,25.90
2019-04-22T15:42:43.409Z,26.10
2019-04-22T15:45:08.414Z,26.00
2019-04-22T15:47:29.239Z,25.90
2019-04-22T15:49:52.071Z,25.90
2019-04-22T15:52:14.693Z,25.80
2019-04-22T15:54:37.421Z,25.90
2019-04-22T15:56:59.204Z,26.00
2019-04-22T15:59:41.584Z,26.00
2019-04-22T16:01:44.844Z,26.20
2019-04-22T16:04:06.521Z,26.30
2019-04-22T16:06:28.073Z,26.40
2019-04-22T16:08:49.845Z,26.60
2019-04-22T16:11:11.785Z,26.70
2019-04-22T16:13:36.774Z,26.70
2019-04-22T16:15:56.469Z,26.80
2019-04-22T16:18:18.281Z,26.90
2019-04-22T16:20:40.515Z,26.70
2019-04-22T16:23:03.774Z,26.60
2019-04-22T16:25:43.404Z,26.50
2019-04-22T16:28:06.239Z,26.60
2019-04-22T16:30:27.796Z,26.60
2019-04-22T16:32:53.093Z,26.50
2019-04-22T16:35:14.625Z,26.40
2019-04-22T16:37:37.037Z,26.30
2019-04-22T16:39:58.909Z,26.20
2019-04-22T16:42:33.235Z,26.10
2019-04-22T16:44:47.006Z,26.00
2019-04-22T16:47:08.026Z,25.60
2019-04-22T16:49:29.779Z,25.50
2019-04-22T16:51:52.028Z,25.30
2019-04-22T16:54:13.837Z,25.20
2019-04-22T16:56:37.090Z,25.10
2019-04-22T16:58:58.968Z,25.10
2019-04-22T17:01:34.803Z,24.90
2019-04-22T17:04:16.502Z,24.80
2019-04-22T17:06:41.216Z,24.70
2019-04-22T17:09:06.691Z,24.50
2019-04-22T17:11:29.769Z,24.30
2019-04-22T17:13:51.238Z,24.10
2019-04-22T17:16:13.838Z,24.00
2019-04-22T17:18:35.311Z,23.90
2019-04-22T17:20:56.563Z,23.70
2019-04-22T17:23:17.990Z,23.60
2019-04-22T17:25:40.458Z,23.50
2019-04-22T17:28:01.827Z,23.40
2019-04-22T17:30:24.358Z,23.30
2019-04-22T17:32:48.157Z,23.10
2019-04-22T17:35:19.914Z,23.00
2019-04-22T17:37:42.900Z,22.90
2019-04-22T17:40:23.184Z,22.90
2019-04-22T17:42:46.427Z,22.80
2019-04-22T17:45:22.005Z,22.70
2019-04-22T17:48:08.642Z,22.70
2019-04-22T17:50:28.573Z,22.60
2019-04-22T17:52:59.564Z,22.50
2019-04-22T17:55:08.576Z,22.50
2019-04-22T17:57:34.385Z,22.40
2019-04-22T17:59:55.112Z,22.30
2019-04-22T18:02:16.736Z,22.20
2019-04-22T18:04:29.040Z,22.10
2019-04-22T18:07:12.075Z,22.00
2019-04-22T18:10:06.424Z,21.90
2019-04-22T18:12:03.293Z,21.90
2019-04-22T18:14:35.077Z,21.80
2019-04-22T18:16:42.913Z,21.70
2019-04-22T18:19:04.485Z,21.60
2019-04-22T18:21:25.650Z,21.50
2019-04-22T18:23:41.588Z,21.40
2019-04-22T18:26:14.741Z,21.30
2019-04-22T18:28:45.328Z,21.30
2019-04-22T18:30:57.055Z,21.20
2019-04-22T18:33:25.757Z,21.10
2019-04-22T18:35:44.464Z,21.00
2019-04-22T18:38:17.900Z,20.80
2019-04-22T18:40:36.302Z,20.60
2019-04-22T18:43:06.281Z,20.50
2019-04-22T18:47:44.303Z,20.20
2019-04-22T18:50:11.958Z,20.10
2019-04-22T18:52:54.471Z,20.10
2019-04-22T18:55:22.085Z,20.00
2019-04-22T18:58:02.748Z,19.90
2019-04-22T19:00:12.687Z,19.90
2019-04-22T19:02:37.171Z,19.80
2019-04-22T19:05:08.784Z,19.80
2019-04-22T19:07:42.037Z,19.70
2019-04-22T19:10:09.656Z,19.60
2019-04-22T19:12:33.763Z,19.60
2019-04-22T19:15:11.459Z,19.50
2019-04-22T19:17:30.086Z,19.50
2019-04-22T19:21:57.334Z,19.40
2019-04-22T19:24:21.356Z,19.40
2019-04-22T19:29:17.189Z,19.20
2019-04-22T19:31:34.837Z,19.10
2019-04-22T19:34:00.742Z,19.10
2019-04-22T19:36:20.547Z,19.00
2019-04-22T19:38:34.007Z,18.90
2019-04-22T19:41:14.575Z,18.90
2019-04-22T19:43:29.195Z,18.80
2019-04-22T19:45:56.216Z,18.80
2019-04-22T19:48:28.293Z,18.70
2019-04-22T19:50:44.382Z,18.60
2019-04-22T19:53:05.040Z,18.60
2019-04-22T19:55:29.686Z,18.50
2019-04-22T19:57:50.703Z,18.60
2019-04-22T20:00:21.404Z,18.50
2019-04-22T20:02:51.430Z,18.40
2019-04-22T20:05:37.193Z,18.30
2019-04-22T20:07:51.290Z,18.30
2019-04-22T20:10:20.781Z,18.20
2019-04-22T20:12:39.650Z,18.20
2019-04-22T20:15:00.290Z,18.10
2019-04-22T20:17:38.860Z,18.10
2019-04-22T20:19:57.691Z,18.10
2019-04-22T20:22:12.792Z,18.00
2019-04-22T20:24:24.603Z,18.00
2019-04-22T20:27:21.335Z,18.00
2019-04-22T20:29:34.499Z,17.90
2019-04-22T20:31:49.453Z,17.90
2019-04-22T20:34:16.230Z,17.80
2019-04-22T20:36:55.461Z,17.70
2019-04-22T20:38:58.162Z,17.70
2019-04-22T20:41:16.593Z,17.70
2019-04-22T20:43:46.928Z,17.60
2019-04-22T20:46:09.918Z,17.60
2019-04-22T20:48:37.633Z,17.50
2019-04-22T20:50:54.858Z,17.50
2019-04-22T20:53:25.456Z,17.50
2019-04-22T20:55:43.626Z,17.50
2019-04-22T20:58:10.230Z,17.50
2019-04-22T21:00:23.383Z,17.40
2019-04-22T21:02:42.670Z,17.40
2019-04-22T21:05:02.972Z,17.40
2019-04-22T21:07:32.527Z,17.40
2019-04-22T21:09:57.964Z,17.40
2019-04-22T21:12:20.955Z,17.40
2019-04-22T21:14:51.474Z,17.40
2019-04-22T21:17:13.612Z,17.40
2019-04-22T21:19:40.382Z,17.50
2019-04-22T21:22:03.455Z,17.50
2019-04-22T21:24:21.825Z,17.60
2019-04-22T21:26:39.954Z,17.50
2019-04-22T21:29:04.354Z,17.50
2019-04-22T21:31:33.286Z,17.50
2019-04-22T21:33:51.938Z,17.40
2019-04-22T21:36:25.036Z,17.40
2019-04-22T21:38:40.315Z,17.40
2019-04-22T21:41:08.220Z,17.40
2019-04-22T21:43:31.916Z,17.40
2019-04-22T21:45:52.355Z,17.40
2019-04-22T21:48:20.574Z,17.40
2019-04-22T21:53:00.842Z,17.40
2019-04-22T21:55:31.736Z,17.40
2019-04-22T21:58:04.576Z,17.40
2019-04-22T22:00:25.253Z,17.40
2019-04-22T22:02:58.519Z,17.30
2019-04-22T22:04:58.266Z,17.30
2019-04-22T22:07:13.961Z,17.30
2019-04-22T22:09:52.489Z,17.20
2019-04-22T22:12:16.077Z,17.20
2019-04-22T22:14:31.650Z,17.20
2019-04-22T22:16:54.682Z,17.20
2019-04-22T22:19:22.663Z,17.10
2019-04-22T22:21:55.466Z,17.10
2019-04-22T22:24:20.708Z,17.10
2019-04-22T22:26:35.305Z,17.10
2019-04-22T22:29:24.662Z,17.10
2019-04-22T22:31:31.849Z,17.00
2019-04-22T22:33:43.678Z,17.00
2019-04-22T22:36:06.616Z,17.00
2019-04-22T22:38:27.083Z,17.00
2019-04-22T22:40:35.966Z,17.00
2019-04-22T22:42:57.004Z,17.00
2019-04-22T22:45:32.811Z,17.00
2019-04-22T22:48:09.650Z,17.00
2019-04-22T22:50:25.953Z,17.00
2019-04-22T22:53:06.665Z,17.00
2019-04-22T22:55:18.049Z,17.00
2019-04-22T22:57:39.982Z,16.90
2019-04-22T23:00:01.445Z,16.90
2019-04-22T23:02:25.833Z,16.90
2019-04-22T23:04:57.943Z,16.90
2019-04-22T23:07:17.251Z,16.90
2019-04-22T23:09:30.785Z,16.80
2019-04-22T23:12:06.387Z,16.80
2019-04-22T23:14:21.950Z,16.70
2019-04-22T23:16:36.730Z,16.70
2019-04-22T23:19:02.078Z,16.70
2019-04-22T23:21:32.650Z,16.70
2019-04-22T23:24:05.694Z,16.60
2019-04-22T23:26:32.240Z,16.50
2019-04-22T23:28:54.748Z,16.50
2019-04-22T23:31:14.078Z,16.60
2019-04-22T23:33:57.278Z,16.50
2019-04-22T23:36:18.676Z,16.40
2019-04-22T23:38:54.938Z,16.40
2019-04-22T23:41:42.414Z,16.40
2019-04-22T23:43:55.669Z,16.30
2019-04-22T23:46:11.451Z,16.40
2019-04-22T23:48:28.984Z,16.30
2019-04-22T23:51:04.460Z,16.30
2019-04-22T23:53:45.149Z,16.30
2019-04-22T23:55:50.687Z,16.30
2019-04-22T23:58:21.067Z,16.30
